Time;durP1;ratioP1;P1;durP2;ratioP2;P2;SDS_P1;SDS_P2;PMS_P1;PMS_P2;Temp;Humidity;BMP_temperature;BMP_pressure;BME280_temperature;BME280_humidity;BME280_pressure;Samples;Min_cycle;Max_cycle;Signal;HPM_P1;HPM_P2
2022/08/02 00:01:58;;;;;;;13.23;8.45;;;;;;;;;;4936076;29;20074;-84
2022/08/02 00:04:23;;;;;;;20.55;9.93;;;;;;;;;;4931500;28;20035;-84
2022/08/02 00:06:48;;;;;;;17.80;8.73;;;;;;;;;;4948178;29;20075;-84
2022/08/02 00:09:14;;;;;;;16.05;9.52;;;;;;;;;;4929221;29;20150;-84
2022/08/02 00:11:39;;;;;;;16.00;9.45;;;;;;;;;;4933472;29;20054;-83
2022/08/02 00:14:05;;;;;;;18.05;10.55;;;;;;;;;;4944560;29;20101;-84
2022/08/02 00:16:30;;;;;;;20.38;10.55;;;;;;;;;;4919449;28;20023;-85
2022/08/02 00:18:55;;;;;;;27.38;11.00;;;;;;;;;;4930974;29;20073;-83
2022/08/02 00:21:21;;;;;;;16.67;11.52;;;;;;;;;;4932999;29;20035;-83
2022/08/02 00:23:46;;;;;;;20.15;11.23;;;;;;;;;;4932341;29;20059;-83
2022/08/02 00:26:11;;;;;;;20.33;12.60;;;;;;;;;;4932020;29;20110;-83
2022/08/02 00:28:37;;;;;;;22.67;11.63;;;;;;;;;;4916391;29;20027;-83
2022/08/02 00:31:02;;;;;;;16.85;10.52;;;;;;;;;;4948943;28;20126;-85
2022/08/02 00:33:27;;;;;;;24.25;11.77;;;;;;;;;;4917174;29;20027;-83
2022/08/02 00:35:53;;;;;;;27.33;11.70;;;;;;;;;;4933301;29;20494;-84
2022/08/02 00:38:18;;;;;;;19.80;11.23;;;;;;;;;;4929910;29;20070;-84
2022/08/02 00:40:48;;;;;;;29.27;12.85;;;;;;;;;;4932230;29;20027;-84
2022/08/02 00:43:13;;;;;;;20.38;12.82;;;;;;;;;;4916289;29;20027;-85
2022/08/02 00:45:39;;;;;;;18.35;10.60;;;;;;;;;;4912818;29;20624;-84
2022/08/02 00:48:05;;;;;;;21.25;11.48;;;;;;;;;;4912030;29;20031;-84
2022/08/02 00:50:31;;;;;;;22.08;10.60;;;;;;;;;;4915836;29;20030;-83
2022/08/02 00:52:56;;;;;;;17.73;10.32;;;;;;;;;;4932168;29;20027;-84
2022/08/02 00:55:22;;;;;;;20.23;11.15;;;;;;;;;;4916822;29;20098;-84
2022/08/02 00:57:47;;;;;;;21.80;12.23;;;;;;;;;;4922551;29;20057;-83
2022/08/02 01:00:13;;;;;;;24.42;12.75;;;;;;;;;;4916720;29;20054;-82
2022/08/02 01:02:38;;;;;;;22.90;12.13;;;;;;;;;;4913931;29;20035;-83
2022/08/02 01:05:04;;;;;;;21.40;12.25;;;;;;;;;;4946908;29;20030;-85
2022/08/02 01:07:29;;;;;;;22.50;11.68;;;;;;;;;;4922155;29;20027;-84
2022/08/02 01:09:55;;;;;;;18.60;11.60;;;;;;;;;;4946398;29;20459;-84
2022/08/02 01:12:21;;;;;;;23.77;11.90;;;;;;;;;;4916143;29;20323;-83
2022/08/02 01:14:49;;;;;;;18.75;12.23;;;;;;;;;;4932582;29;20035;-84
2022/08/02 01:17:31;;;;;;;24.10;12.95;;;;;;;;;;4912678;29;20055;-83
2022/08/02 01:20:00;;;;;;;33.65;13.65;;;;;;;;;;4931390;29;20031;-84
2022/08/02 01:23:04;;;;;;;18.92;12.05;;;;;;;;;;4946551;28;20027;-84
2022/08/02 01:26:02;;;;;;;18.92;11.18;;;;;;;;;;4913681;29;20102;-83
2022/08/02 01:28:33;;;;;;;20.42;12.90;;;;;;;;;;4915203;29;20027;-83
2022/08/02 01:31:11;;;;;;;26.75;13.80;;;;;;;;;;4915213;29;20515;-83
2022/08/02 01:33:43;;;;;;;21.88;13.93;;;;;;;;;;4932633;29;20118;-84
2022/08/02 01:36:10;;;;;;;23.25;14.90;;;;;;;;;;4913667;29;20077;-85
2022/08/02 01:38:47;;;;;;;24.65;13.48;;;;;;;;;;4929752;29;20047;-84
2022/08/02 01:41:16;;;;;;;21.10;12.00;;;;;;;;;;4911393;29;20069;-83
2022/08/02 01:43:42;;;;;;;25.98;13.88;;;;;;;;;;4928710;29;20066;-83
2022/08/02 01:46:07;;;;;;;23.02;14.07;;;;;;;;;;4932401;29;20135;-83
2022/08/02 01:48:33;;;;;;;22.70;14.38;;;;;;;;;;4915147;29;20026;-83
2022/08/02 01:50:58;;;;;;;32.63;15.48;;;;;;;;;;4931967;29;20068;-84
2022/08/02 01:53:25;;;;;;;28.60;15.25;;;;;;;;;;4916919;29;20067;-84
2022/08/02 01:55:51;;;;;;;24.33;14.50;;;;;;;;;;4929436;29;20031;-84
2022/08/02 01:58:18;;;;;;;22.83;13.82;;;;;;;;;;4930699;29;20043;-84
2022/08/02 02:00:43;;;;;;;32.42;15.25;;;;;;;;;;4931931;29;20023;-84
2022/08/02 02:03:13;;;;;;;21.13;12.90;;;;;;;;;;4916853;29;20511;-84
2022/08/02 02:05:38;;;;;;;20.67;13.95;;;;;;;;;;4926249;29;20074;-85
2022/08/02 02:08:05;;;;;;;28.23;14.45;;;;;;;;;;4894402;29;20040;-83
2022/08/02 02:10:31;;;;;;;29.70;15.10;;;;;;;;;;4918736;29;20479;-83
2022/08/02 02:12:59;;;;;;;29.25;15.10;;;;;;;;;;4933741;29;20038;-83
2022/08/02 02:15:24;;;;;;;29.33;15.20;;;;;;;;;;4922499;29;20460;-85
2022/08/02 02:17:51;;;;;;;25.27;14.85;;;;;;;;;;4939134;29;20031;-83
2022/08/02 02:20:17;;;;;;;22.83;14.85;;;;;;;;;;4939348;29;20027;-85
2022/08/02 02:22:43;;;;;;;27.98;15.63;;;;;;;;;;4939252;29;20034;-86
2022/08/02 02:25:09;;;;;;;26.05;14.35;;;;;;;;;;4924048;29;20450;-85
2022/08/02 02:27:35;;;;;;;25.88;14.57;;;;;;;;;;4907025;29;20051;-84
2022/08/02 02:30:00;;;;;;;27.92;14.98;;;;;;;;;;4938244;29;20118;-85
2022/08/02 02:32:26;;;;;;;21.35;13.85;;;;;;;;;;4938490;29;20118;-83
2022/08/02 02:34:51;;;;;;;32.75;15.90;;;;;;;;;;4922519;29;20031;-84
2022/08/02 02:37:19;;;;;;;26.00;14.40;;;;;;;;;;4938686;29;20480;-82
2022/08/02 02:39:45;;;;;;;30.17;14.10;;;;;;;;;;4938576;29;20074;-83
2022/08/02 02:42:12;;;;;;;28.83;15.45;;;;;;;;;;4937464;29;20035;-85
2022/08/02 02:44:38;;;;;;;36.50;15.00;;;;;;;;;;4938619;29;20027;-84
2022/08/02 02:47:03;;;;;;;31.48;16.65;;;;;;;;;;4939026;29;20067;-84
2022/08/02 02:49:30;;;;;;;26.65;16.25;;;;;;;;;;4922688;29;20031;-83
2022/08/02 02:51:56;;;;;;;40.78;18.42;;;;;;;;;;4919982;29;20039;-85
2022/08/02 02:54:21;;;;;;;27.35;16.15;;;;;;;;;;4895474;29;20560;-84
2022/08/02 02:56:46;;;;;;;25.02;15.85;;;;;;;;;;4938578;29;20110;-86
2022/08/02 02:59:12;;;;;;;31.80;17.33;;;;;;;;;;4939950;29;20095;-84
2022/08/02 03:01:37;;;;;;;41.83;17.38;;;;;;;;;;4937991;29;20035;-86
2022/08/02 03:04:05;;;;;;;25.23;16.08;;;;;;;;;;4938292;29;20031;-85
2022/08/02 03:06:30;;;;;;;31.00;17.60;;;;;;;;;;4937999;29;20041;-86
2022/08/02 03:08:56;;;;;;;31.17;16.42;;;;;;;;;;4922586;29;20123;-85
2022/08/02 03:11:22;;;;;;;32.03;16.83;;;;;;;;;;4937878;29;20123;-86
2022/08/02 03:13:48;;;;;;;33.55;17.17;;;;;;;;;;4922468;29;20023;-86
2022/08/02 03:16:13;;;;;;;28.88;15.00;;;;;;;;;;4935010;29;20775;-86
2022/08/02 03:18:40;;;;;;;40.13;17.67;;;;;;;;;;4954516;29;20019;-86
2022/08/02 03:21:12;;;;;;;27.05;16.83;;;;;;;;;;4937934;29;20031;-86
2022/08/02 03:23:38;;;;;;;33.13;16.95;;;;;;;;;;4938176;29;20042;-85
2022/08/02 03:26:04;;;;;;;33.53;16.85;;;;;;;;;;4921104;29;20023;-88
2022/08/02 03:28:29;;;;;;;29.38;15.70;;;;;;;;;;4937751;29;20074;-86
2022/08/02 03:30:55;;;;;;;27.45;17.80;;;;;;;;;;4937586;29;20055;-86
2022/08/02 03:33:20;;;;;;;32.10;18.48;;;;;;;;;;4921692;29;20473;-85
2022/08/02 03:35:46;;;;;;;34.25;16.88;;;;;;;;;;4928069;29;20027;-85
2022/08/02 03:38:12;;;;;;;36.17;19.90;;;;;;;;;;4905976;29;20051;-84
2022/08/02 03:40:38;;;;;;;35.33;18.73;;;;;;;;;;4937162;29;20527;-84
2022/08/02 03:43:04;;;;;;;34.22;16.75;;;;;;;;;;4937670;29;20050;-85
2022/08/02 03:45:29;;;;;;;36.97;19.58;;;;;;;;;;4921991;29;20031;-84
2022/08/02 03:47:55;;;;;;;35.83;18.77;;;;;;;;;;4937431;29;20475;-85
2022/08/02 03:50:21;;;;;;;36.38;19.27;;;;;;;;;;4921052;29;20114;-84
2022/08/02 03:52:47;;;;;;;35.97;18.85;;;;;;;;;;4935880;29;20411;-85
2022/08/02 03:55:12;;;;;;;31.98;20.85;;;;;;;;;;4932418;29;20028;-82
2022/08/02 03:57:38;;;;;;;34.83;21.30;;;;;;;;;;4924783;28;20046;-85
2022/08/02 04:00:05;;;;;;;43.65;22.65;;;;;;;;;;4959746;28;20093;-85
2022/08/02 04:02:30;;;;;;;38.58;22.80;;;;;;;;;;4921953;29;20035;-85
2022/08/02 04:04:56;;;;;;;36.47;21.50;;;;;;;;;;4947574;29;20026;-84
2022/08/02 04:07:21;;;;;;;35.30;23.30;;;;;;;;;;4932469;29;20055;-86
2022/08/02 04:09:46;;;;;;;39.45;21.55;;;;;;;;;;4921369;29;20039;-83
2022/08/02 04:12:12;;;;;;;34.65;22.33;;;;;;;;;;4936849;29;20403;-85
2022/08/02 04:14:37;;;;;;;34.55;22.10;;;;;;;;;;4920752;29;20034;-84
2022/08/02 04:17:07;;;;;;;39.92;22.20;;;;;;;;;;4919595;29;20399;-85
2022/08/02 04:19:35;;;;;;;50.65;23.60;;;;;;;;;;4930721;29;20035;-85
2022/08/02 04:22:03;;;;;;;34.20;19.90;;;;;;;;;;4933768;29;20105;-85
2022/08/02 04:24:31;;;;;;;34.17;20.05;;;;;;;;;;4953965;29;20078;-84
2022/08/02 04:26:57;;;;;;;44.35;22.83;;;;;;;;;;4936244;29;20031;-84
2022/08/02 04:29:22;;;;;;;38.33;21.83;;;;;;;;;;4937090;29;20019;-82
2022/08/02 04:31:48;;;;;;;32.85;19.17;;;;;;;;;;4932914;29;20407;-83
2022/08/02 04:34:13;;;;;;;37.55;21.30;;;;;;;;;;4934377;28;20051;-83
2022/08/02 04:36:40;;;;;;;35.17;20.15;;;;;;;;;;4914965;28;20096;-86
2022/08/02 04:39:05;;;;;;;37.72;19.50;;;;;;;;;;4906137;29;20070;-87
2022/08/02 04:41:57;;;;;;;36.47;20.90;;;;;;;;;;4923821;29;20047;-86
2022/08/02 04:44:25;;;;;;;28.48;19.98;;;;;;;;;;4899507;29;20035;-85
2022/08/02 04:46:51;;;;;;;35.88;19.85;;;;;;;;;;4917618;29;20044;-85
2022/08/02 04:49:16;;;;;;;30.35;18.20;;;;;;;;;;4901788;29;20112;-84
2022/08/02 04:51:42;;;;;;;29.83;19.90;;;;;;;;;;4911318;29;20668;-85
2022/08/02 04:54:08;;;;;;;33.85;20.13;;;;;;;;;;4904295;29;20107;-86
2022/08/02 04:56:33;;;;;;;32.78;20.00;;;;;;;;;;4935641;29;20038;-85
2022/08/02 04:59:02;;;;;;;30.10;19.02;;;;;;;;;;4918011;29;20028;-85
2022/08/02 05:01:27;;;;;;;32.92;17.90;;;;;;;;;;4932039;29;20043;-86
2022/08/02 05:03:53;;;;;;;30.95;19.55;;;;;;;;;;4929658;29;20036;-85
2022/08/02 05:06:18;;;;;;;34.90;19.40;;;;;;;;;;4905956;29;20080;-85
2022/08/02 05:08:47;;;;;;;31.70;18.40;;;;;;;;;;4901362;29;20028;-85
2022/08/02 05:11:12;;;;;;;26.30;18.70;;;;;;;;;;4920837;29;20032;-86
2022/08/02 05:13:40;;;;;;;28.75;18.60;;;;;;;;;;4890105;29;20095;-87
2022/08/02 05:16:05;;;;;;;34.13;17.13;;;;;;;;;;4905287;29;20048;-84
2022/08/02 05:18:31;;;;;;;37.35;18.98;;;;;;;;;;4906502;29;20468;-86
2022/08/02 05:20:56;;;;;;;27.70;17.23;;;;;;;;;;4886867;29;20075;-85
2022/08/02 05:23:21;;;;;;;26.38;15.60;;;;;;;;;;4936239;29;20091;-86
2022/08/02 05:25:47;;;;;;;23.83;15.15;;;;;;;;;;4915698;29;20458;-86
2022/08/02 05:28:12;;;;;;;26.20;13.88;;;;;;;;;;4921084;29;20065;-86
2022/08/02 05:30:38;;;;;;;25.15;14.02;;;;;;;;;;4909271;29;20051;-85
2022/08/02 05:33:04;;;;;;;18.95;12.45;;;;;;;;;;4923202;29;20028;-85
2022/08/02 05:35:29;;;;;;;21.80;12.75;;;;;;;;;;4887804;29;20024;-85
2022/08/02 05:37:55;;;;;;;19.45;11.93;;;;;;;;;;4900100;29;20048;-86
2022/08/02 05:40:20;;;;;;;17.52;12.30;;;;;;;;;;4909921;29;20063;-87
2022/08/02 05:42:46;;;;;;;19.65;10.55;;;;;;;;;;4901809;29;20051;-85
2022/08/02 05:45:11;;;;;;;14.30;10.45;;;;;;;;;;4899431;29;20028;-85
2022/08/02 05:47:37;;;;;;;18.38;10.63;;;;;;;;;;4932215;29;20085;-86
2022/08/02 05:50:03;;;;;;;22.13;10.80;;;;;;;;;;4933658;29;20060;-86
2022/08/02 05:52:50;;;;;;;23.88;10.15;;;;;;;;;;4885971;29;20028;-86
2022/08/02 05:55:17;;;;;;;19.42;10.27;;;;;;;;;;4885335;29;20560;-86
2022/08/02 05:57:47;;;;;;;21.20;10.30;;;;;;;;;;4883724;29;20430;-87
2022/08/02 06:00:13;;;;;;;17.33;10.48;;;;;;;;;;4902474;29;20139;-86
2022/08/02 06:02:42;;;;;;;18.17;9.13;;;;;;;;;;4892871;29;20024;-86
2022/08/02 06:05:20;;;;;;;17.42;9.32;;;;;;;;;;4901492;29;20043;-84
2022/08/02 06:07:46;;;;;;;22.67;9.20;;;;;;;;;;4932661;29;20047;-87
2022/08/02 06:10:12;;;;;;;17.55;8.63;;;;;;;;;;4903621;29;20551;-86
2022/08/02 06:12:50;;;;;;;14.35;7.53;;;;;;;;;;4887898;29;20036;-86
2022/08/02 06:15:17;;;;;;;16.02;8.35;;;;;;;;;;4919854;29;20040;-85
2022/08/02 06:17:42;;;;;;;16.35;7.60;;;;;;;;;;4903729;29;20024;-86
2022/08/02 06:20:09;;;;;;;11.55;7.00;;;;;;;;;;4901917;29;20044;-86
2022/08/02 06:22:35;;;;;;;17.20;7.50;;;;;;;;;;4902059;29;20055;-85
2022/08/02 06:25:00;;;;;;;23.27;7.57;;;;;;;;;;4900213;29;20036;-85
2022/08/02 06:27:26;;;;;;;12.52;7.10;;;;;;;;;;4887207;29;20054;-84
2022/08/02 06:29:52;;;;;;;16.63;6.80;;;;;;;;;;4900937;29;20032;-84
2022/08/02 06:32:18;;;;;;;11.57;6.50;;;;;;;;;;4893934;29;20047;-85
2022/08/02 06:34:43;;;;;;;15.95;6.30;;;;;;;;;;4925644;29;20120;-85
2022/08/02 06:37:37;;;;;;;13.77;5.82;;;;;;;;;;4902883;29;20397;-86
2022/08/02 06:40:09;;;;;;;;;;;;;;;;;;4913490;29;20071;-85
2022/08/02 06:43:05;;;;;;;15.73;6.43;;;;;;;;;;4900217;29;19921;-86
2022/08/02 06:45:32;;;;;;;15.57;5.50;;;;;;;;;;4917083;29;20257;-87
2022/08/02 06:47:57;;;;;;;11.70;5.15;;;;;;;;;;4883535;29;20032;-84
2022/08/02 06:50:23;;;;;;;12.07;4.85;;;;;;;;;;4901033;29;20043;-84
2022/08/02 06:52:48;;;;;;;8.35;4.80;;;;;;;;;;4899447;29;20127;-85
2022/08/02 06:55:13;;;;;;;11.18;4.57;;;;;;;;;;4913346;29;20068;-85
2022/08/02 06:57:39;;;;;;;13.75;4.78;;;;;;;;;;4886132;29;20055;-85
2022/08/02 07:00:07;;;;;;;8.90;3.85;;;;;;;;;;4886582;29;20481;-85
2022/08/02 07:02:34;;;;;;;10.55;4.18;;;;;;;;;;4887890;29;20085;-85
2022/08/02 07:04:59;;;;;;;12.95;4.82;;;;;;;;;;4917966;29;20051;-85
2022/08/02 07:07:25;;;;;;;15.27;4.78;;;;;;;;;;4901522;29;20046;-84
2022/08/02 07:09:51;;;;;;;8.63;3.85;;;;;;;;;;4901526;29;20512;-85
2022/08/02 07:12:16;;;;;;;6.15;3.03;;;;;;;;;;4885502;29;20404;-85
2022/08/02 07:14:42;;;;;;;11.52;3.10;;;;;;;;;;4915708;29;20115;-86
2022/08/02 07:17:07;;;;;;;5.53;2.65;;;;;;;;;;4899494;29;20252;-85
2022/08/02 07:19:32;;;;;;;12.20;3.00;;;;;;;;;;4900473;29;20060;-85
2022/08/02 07:21:58;;;;;;;9.25;2.88;;;;;;;;;;4900748;29;20100;-85
2022/08/02 07:24:23;;;;;;;8.68;2.70;;;;;;;;;;4900410;29;20067;-85
2022/08/02 07:26:49;;;;;;;9.45;3.15;;;;;;;;;;4899229;29;20065;-84
2022/08/02 07:29:14;;;;;;;8.18;3.08;;;;;;;;;;4916439;29;20063;-85
2022/08/02 07:31:39;;;;;;;9.52;2.88;;;;;;;;;;4915553;29;20111;-84
2022/08/02 07:34:05;;;;;;;15.00;3.30;;;;;;;;;;4915205;29;20071;-85
2022/08/02 07:36:30;;;;;;;8.40;3.10;;;;;;;;;;4913607;29;20055;-85
2022/08/02 07:38:56;;;;;;;10.35;2.60;;;;;;;;;;4891579;29;20052;-85
2022/08/02 07:41:22;;;;;;;12.15;2.47;;;;;;;;;;4930405;29;20447;-84
2022/08/02 07:43:47;;;;;;;10.82;2.97;;;;;;;;;;4897935;29;20048;-85
2022/08/02 07:46:13;;;;;;;9.82;3.28;;;;;;;;;;4915697;29;20036;-85
2022/08/02 07:48:38;;;;;;;6.70;2.67;;;;;;;;;;4898859;29;20028;-86
2022/08/02 07:51:03;;;;;;;7.70;3.60;;;;;;;;;;4897330;29;20034;-86
2022/08/02 07:53:29;;;;;;;8.00;2.92;;;;;;;;;;4898933;29;20503;-85
2022/08/02 07:55:54;;;;;;;7.07;3.08;;;;;;;;;;4898788;29;20036;-85
2022/08/02 07:58:20;;;;;;;10.18;3.67;;;;;;;;;;4883429;29;20032;-85
2022/08/02 08:00:45;;;;;;;7.03;2.83;;;;;;;;;;4898578;29;20080;-84
2022/08/02 08:03:11;;;;;;;7.82;2.97;;;;;;;;;;4882321;29;20511;-85
2022/08/02 08:05:36;;;;;;;9.05;2.88;;;;;;;;;;4881952;29;20031;-86
2022/08/02 08:08:01;;;;;;;11.43;3.20;;;;;;;;;;4914250;29;20500;-85
2022/08/02 08:10:27;;;;;;;10.70;3.25;;;;;;;;;;4903688;29;20035;-85
2022/08/02 08:12:54;;;;;;;7.75;2.80;;;;;;;;;;4894549;29;20033;-86
2022/08/02 08:15:19;;;;;;;8.55;3.33;;;;;;;;;;4882765;29;20127;-85
2022/08/02 08:17:45;;;;;;;11.15;3.92;;;;;;;;;;4911421;29;20036;-86
2022/08/02 08:20:10;;;;;;;12.38;3.38;;;;;;;;;;4876433;29;20144;-86
2022/08/02 08:22:36;;;;;;;7.50;3.15;;;;;;;;;;4906160;29;20539;-85
2022/08/02 08:25:01;;;;;;;9.23;3.47;;;;;;;;;;4898698;29;20032;-84
2022/08/02 08:27:27;;;;;;;10.27;3.47;;;;;;;;;;4897517;29;20060;-85
2022/08/02 08:29:52;;;;;;;10.35;2.90;;;;;;;;;;4896986;29;20050;-85
2022/08/02 08:32:18;;;;;;;6.32;2.58;;;;;;;;;;4896843;29;20063;-86
2022/08/02 08:34:44;;;;;;;9.70;3.00;;;;;;;;;;4897839;29;20855;-85
2022/08/02 08:37:09;;;;;;;6.75;2.80;;;;;;;;;;4928957;29;20028;-86
2022/08/02 08:39:35;;;;;;;6.57;2.35;;;;;;;;;;4914073;29;20250;-87
2022/08/02 08:42:01;;;;;;;9.98;2.85;;;;;;;;;;4916467;29;20139;-85
2022/08/02 08:44:26;;;;;;;6.30;2.50;;;;;;;;;;4916997;29;20071;-85
2022/08/02 08:46:52;;;;;;;4.10;2.10;;;;;;;;;;4930221;29;20036;-85
2022/08/02 08:49:30;;;;;;;11.85;2.67;;;;;;;;;;4900202;29;20047;-86
2022/08/02 08:51:55;;;;;;;8.50;2.30;;;;;;;;;;4899375;29;20032;-86
2022/08/02 08:54:23;;;;;;;5.82;2.50;;;;;;;;;;4916253;29;20040;-86
2022/08/02 08:56:48;;;;;;;7.65;2.38;;;;;;;;;;4916435;29;20043;-86
2022/08/02 08:59:14;;;;;;;9.98;4.00;;;;;;;;;;4916745;29;20065;-85
2022/08/02 09:01:39;;;;;;;6.05;2.33;;;;;;;;;;4915459;29;20504;-86
2022/08/02 09:04:04;;;;;;;9.70;2.22;;;;;;;;;;4916814;29;20038;-85
2022/08/02 09:06:30;;;;;;;7.60;2.55;;;;;;;;;;4935084;29;20067;-86
2022/08/02 09:08:55;;;;;;;6.75;2.13;;;;;;;;;;4932334;29;20098;-85
2022/08/02 09:11:24;;;;;;;6.55;2.22;;;;;;;;;;4933720;29;20095;-86
2022/08/02 09:13:56;;;;;;;6.22;1.92;;;;;;;;;;4916316;29;20154;-86
2022/08/02 09:16:32;;;;;;;5.75;2.30;;;;;;;;;;4947678;29;20122;-85
2022/08/02 09:18:57;;;;;;;13.40;2.20;;;;;;;;;;4915436;29;20042;-86
2022/08/02 09:21:23;;;;;;;5.50;2.10;;;;;;;;;;4931304;29;20031;-85
2022/08/02 09:23:50;;;;;;;6.82;2.35;;;;;;;;;;4914888;29;20500;-86
2022/08/02 09:26:17;;;;;;;4.72;2.63;;;;;;;;;;4915836;29;20385;-87
2022/08/02 09:28:45;;;;;;;7.72;2.42;;;;;;;;;;4931335;29;20082;-87
2022/08/02 09:31:18;;;;;;;8.82;2.78;;;;;;;;;;4916861;29;20031;-86
2022/08/02 09:33:44;;;;;;;10.45;2.47;;;;;;;;;;4901061;29;20073;-87
2022/08/02 09:36:11;;;;;;;8.15;2.63;;;;;;;;;;4900816;29;20480;-87
2022/08/02 09:38:37;;;;;;;6.13;2.75;;;;;;;;;;4916916;29;20048;-87
2022/08/02 09:41:03;;;;;;;5.82;2.65;;;;;;;;;;4932522;29;20055;-87
2022/08/02 09:43:40;;;;;;;5.40;2.25;;;;;;;;;;4928729;29;20044;-88
2022/08/02 09:46:26;;;;;;;3.83;1.88;;;;;;;;;;4893300;29;20051;-88
2022/08/02 09:48:54;;;;;;;9.38;3.25;;;;;;;;;;4898079;29;20439;-87
2022/08/02 09:51:39;;;;;;;6.38;2.72;;;;;;;;;;4930488;29;20023;-87
2022/08/02 09:54:10;;;;;;;6.05;3.42;;;;;;;;;;4915554;29;20038;-87
2022/08/02 09:56:40;;;;;;;9.70;3.08;;;;;;;;;;4916840;29;20369;-87
2022/08/02 09:59:06;;;;;;;7.95;3.75;;;;;;;;;;4915944;29;20162;-87
2022/08/02 10:01:32;;;;;;;6.93;3.35;;;;;;;;;;4917032;29;20037;-87
2022/08/02 10:03:59;;;;;;;7.43;4.20;;;;;;;;;;4916238;29;20479;-85
2022/08/02 10:06:25;;;;;;;7.88;4.28;;;;;;;;;;4917123;29;20027;-85
2022/08/02 10:08:52;;;;;;;6.30;4.20;;;;;;;;;;4901330;29;20061;-87
2022/08/02 10:11:17;;;;;;;11.45;3.55;;;;;;;;;;4917665;29;20047;-87
2022/08/02 10:13:43;;;;;;;8.80;3.95;;;;;;;;;;4916268;29;20043;-86
2022/08/02 10:16:08;;;;;;;11.20;3.83;;;;;;;;;;4932785;29;20075;-86
2022/08/02 10:18:34;;;;;;;9.40;3.55;;;;;;;;;;4899752;29;20055;-85
2022/08/02 10:21:00;;;;;;;14.50;4.30;;;;;;;;;;4900077;29;20035;-84
2022/08/02 10:23:26;;;;;;;8.40;2.80;;;;;;;;;;4884986;29;20064;-86
2022/08/02 10:25:52;;;;;;;4.38;3.13;;;;;;;;;;4931000;29;20448;-86
2022/08/02 10:28:17;;;;;;;6.82;3.53;;;;;;;;;;4916459;29;20476;-86
2022/08/02 10:30:44;;;;;;;4.97;2.97;;;;;;;;;;4915870;29;20031;-84
2022/08/02 10:33:09;;;;;;;6.65;3.25;;;;;;;;;;4899629;29;20459;-86
2022/08/02 10:35:37;;;;;;;5.28;2.78;;;;;;;;;;4901863;29;20502;-88
2022/08/02 10:38:06;;;;;;;4.35;2.53;;;;;;;;;;4903795;29;20128;-86
2022/08/02 10:40:52;;;;;;;12.30;3.50;;;;;;;;;;4919190;29;20094;-87
2022/08/02 10:43:35;;;;;;;7.28;3.67;;;;;;;;;;4918673;29;20037;-87
2022/08/02 10:46:19;;;;;;;10.32;3.30;;;;;;;;;;4917258;29;20436;-87
2022/08/02 10:49:06;;;;;;;6.15;2.50;;;;;;;;;;4918996;29;20054;-87
2022/08/02 10:51:50;;;;;;;8.13;2.28;;;;;;;;;;4934879;29;20031;-86
2022/08/02 10:54:18;;;;;;;5.53;2.55;;;;;;;;;;4918846;29;20024;-87
2022/08/02 10:56:48;;;;;;;8.95;2.10;;;;;;;;;;4903565;29;20020;-85
2022/08/02 10:59:27;;;;;;;6.72;1.60;;;;;;;;;;4903066;29;20054;-84
2022/08/02 11:02:00;;;;;;;3.15;1.40;;;;;;;;;;4917296;29;20027;-84
2022/08/02 11:04:35;;;;;;;4.10;1.50;;;;;;;;;;4903558;29;20032;-85
2022/08/02 11:07:20;;;;;;;7.43;2.10;;;;;;;;;;4934453;29;20028;-85
2022/08/02 11:09:48;;;;;;;5.15;1.48;;;;;;;;;;4918797;29;20395;-85
2022/08/02 11:12:18;;;;;;;4.75;2.00;;;;;;;;;;4935319;29;20041;-84
2022/08/02 11:14:45;;;;;;;3.83;1.70;;;;;;;;;;4914812;29;20024;-85
2022/08/02 11:17:15;;;;;;;4.60;1.58;;;;;;;;;;4916170;29;20028;-84
2022/08/02 11:20:09;;;;;;;3.92;2.10;;;;;;;;;;4903340;29;20038;-85
2022/08/02 11:22:34;;;;;;;4.45;2.30;;;;;;;;;;4928285;29;20058;-85
2022/08/02 11:25:22;;;;;;;5.63;2.05;;;;;;;;;;4902050;29;20035;-85
2022/08/02 11:27:57;;;;;;;5.38;1.73;;;;;;;;;;4949527;29;20032;-85
2022/08/02 11:30:22;;;;;;;4.57;2.25;;;;;;;;;;4917517;29;20059;-86
2022/08/02 11:32:48;;;;;;;7.63;2.97;;;;;;;;;;4931241;29;20074;-86
2022/08/02 11:35:13;;;;;;;6.90;3.60;;;;;;;;;;4916599;29;20028;-86
2022/08/02 11:37:40;;;;;;;4.55;2.20;;;;;;;;;;4948305;29;20024;-86
2022/08/02 11:40:07;;;;;;;5.35;2.75;;;;;;;;;;4883132;29;20523;-85
2022/08/02 11:42:33;;;;;;;3.88;2.20;;;;;;;;;;4883305;29;20060;-84
2022/08/02 11:44:59;;;;;;;6.97;2.67;;;;;;;;;;4883687;29;20040;-86
2022/08/02 11:47:24;;;;;;;4.25;2.25;;;;;;;;;;4882813;29;20473;-85
2022/08/02 11:49:50;;;;;;;4.53;2.85;;;;;;;;;;4914764;29;20071;-85
2022/08/02 11:52:15;;;;;;;6.07;2.63;;;;;;;;;;4898991;29;20071;-85
2022/08/02 11:54:41;;;;;;;5.40;2.80;;;;;;;;;;4884446;29;20078;-86
2022/08/02 11:57:17;;;;;;;3.78;2.35;;;;;;;;;;4882641;29;20063;-86
2022/08/02 11:59:43;;;;;;;2.72;1.92;;;;;;;;;;4914329;29;20084;-85
2022/08/02 12:02:08;;;;;;;5.10;2.17;;;;;;;;;;4914821;29;20114;-85
2022/08/02 12:04:37;;;;;;;3.35;1.80;;;;;;;;;;4897826;29;20036;-85
2022/08/02 12:07:02;;;;;;;6.47;2.75;;;;;;;;;;4882355;29;20450;-85
2022/08/02 12:09:29;;;;;;;4.20;2.10;;;;;;;;;;4898426;29;20040;-85
2022/08/02 12:11:55;;;;;;;7.35;2.60;;;;;;;;;;4897498;29;20032;-85
2022/08/02 12:14:20;;;;;;;4.15;2.40;;;;;;;;;;4867086;29;20040;-84
2022/08/02 12:19:31;;;;;;;3.05;2.08;;;;;;;;;;4899833;29;20039;-85
2022/08/02 12:22:13;;;;;;;5.28;2.05;;;;;;;;;;4897453;29;20035;-85
2022/08/02 12:24:39;;;;;;;4.50;2.38;;;;;;;;;;4882427;29;20040;-86
2022/08/02 12:27:05;;;;;;;7.30;2.55;;;;;;;;;;4897783;29;20074;-85
2022/08/02 12:29:37;;;;;;;4.95;2.47;;;;;;;;;;4898196;29;20488;-84
2022/08/02 12:32:03;;;;;;;5.07;2.90;;;;;;;;;;4929257;29;20054;-85
2022/08/02 12:34:29;;;;;;;4.60;2.25;;;;;;;;;;4898101;29;20040;-84
2022/08/02 12:37:09;;;;;;;7.00;2.70;;;;;;;;;;4897727;29;20052;-85
2022/08/02 12:39:41;;;;;;;5.25;2.42;;;;;;;;;;4929438;29;20050;-84
2022/08/02 12:42:09;;;;;;;6.00;2.70;;;;;;;;;;4917361;29;20134;-84
2022/08/02 12:44:36;;;;;;;6.70;2.40;;;;;;;;;;4916367;29;20024;-83
2022/08/02 12:47:05;;;;;;;4.63;2.90;;;;;;;;;;4931004;29;20070;-84
2022/08/02 12:49:30;;;;;;;4.97;2.72;;;;;;;;;;4916696;29;20035;-84
2022/08/02 12:51:56;;;;;;;3.92;2.33;;;;;;;;;;4931771;29;20040;-84
2022/08/02 12:54:23;;;;;;;5.57;2.70;;;;;;;;;;4884728;29;20078;-84
2022/08/02 12:56:48;;;;;;;7.55;2.78;;;;;;;;;;4900402;29;20527;-83
2022/08/02 12:59:14;;;;;;;6.88;2.55;;;;;;;;;;4916377;29;20032;-84
2022/08/02 13:01:40;;;;;;;5.10;2.55;;;;;;;;;;4915286;29;20073;-85
2022/08/02 13:04:05;;;;;;;5.03;2.80;;;;;;;;;;4914866;29;20551;-84
2022/08/02 13:06:31;;;;;;;3.90;2.47;;;;;;;;;;4898794;29;20053;-84
2022/08/02 13:08:57;;;;;;;6.75;3.25;;;;;;;;;;4914722;29;20106;-85
2022/08/02 13:11:23;;;;;;;6.85;3.08;;;;;;;;;;4884318;29;20831;-85
2022/08/02 13:13:48;;;;;;;5.80;3.10;;;;;;;;;;4914278;29;20122;-85
2022/08/02 13:16:13;;;;;;;5.15;2.85;;;;;;;;;;4900806;29;20027;-84
2022/08/02 13:18:39;;;;;;;4.85;2.60;;;;;;;;;;4900246;29;20099;-85
2022/08/02 13:21:05;;;;;;;4.35;2.72;;;;;;;;;;4914490;29;20032;-84
2022/08/02 13:23:31;;;;;;;5.70;2.75;;;;;;;;;;4915904;29;20079;-85
2022/08/02 13:25:57;;;;;;;6.00;2.60;;;;;;;;;;4914475;29;20043;-86
2022/08/02 13:28:23;;;;;;;4.53;2.85;;;;;;;;;;4898842;29;20096;-84
2022/08/02 13:30:49;;;;;;;7.32;3.20;;;;;;;;;;4900052;29;20040;-84
2022/08/02 13:33:14;;;;;;;5.20;2.40;;;;;;;;;;4914828;29;20114;-84
2022/08/02 13:35:40;;;;;;;5.50;2.60;;;;;;;;;;4915217;29;20555;-84
2022/08/02 13:38:05;;;;;;;5.18;2.95;;;;;;;;;;4899202;29;20044;-84
2022/08/02 13:40:31;;;;;;;6.03;2.60;;;;;;;;;;4915817;29;20087;-85
2022/08/02 13:42:59;;;;;;;7.93;2.78;;;;;;;;;;4914826;29;20058;-85
2022/08/02 13:45:24;;;;;;;5.40;2.97;;;;;;;;;;4939250;29;20468;-84
2022/08/02 13:47:50;;;;;;;7.53;2.58;;;;;;;;;;4915412;29;20031;-84
2022/08/02 13:50:15;;;;;;;4.25;2.75;;;;;;;;;;4914482;29;20040;-84
2022/08/02 13:52:41;;;;;;;4.55;2.38;;;;;;;;;;4914755;29;20412;-84
2022/08/02 13:55:07;;;;;;;6.43;2.38;;;;;;;;;;4914659;29;20038;-85
2022/08/02 13:57:32;;;;;;;3.47;2.28;;;;;;;;;;4899553;29;20395;-85
2022/08/02 13:59:57;;;;;;;6.43;2.50;;;;;;;;;;4932939;29;20040;-86
2022/08/02 14:02:23;;;;;;;3.38;2.10;;;;;;;;;;4947520;29;20066;-85
2022/08/02 14:04:48;;;;;;;3.53;2.20;;;;;;;;;;4914738;29;20488;-85
2022/08/02 14:07:14;;;;;;;7.97;2.80;;;;;;;;;;4915361;29;20097;-85
2022/08/02 14:09:40;;;;;;;4.45;2.75;;;;;;;;;;4900001;29;20051;-85
2022/08/02 14:12:06;;;;;;;8.25;2.80;;;;;;;;;;4919545;29;20516;-85
2022/08/02 14:14:31;;;;;;;8.73;3.45;;;;;;;;;;4935705;29;20040;-85
2022/08/02 14:16:56;;;;;;;3.28;2.30;;;;;;;;;;4933713;29;20035;-85
2022/08/02 14:19:22;;;;;;;4.75;2.58;;;;;;;;;;4935209;29;20047;-85
2022/08/02 14:21:48;;;;;;;5.90;2.83;;;;;;;;;;4934433;29;20309;-85
2022/08/02 14:24:18;;;;;;;3.75;2.00;;;;;;;;;;4915620;29;20051;-84
2022/08/02 14:26:43;;;;;;;3.25;2.17;;;;;;;;;;4933335;29;20527;-85
2022/08/02 14:29:09;;;;;;;7.85;2.63;;;;;;;;;;4919081;29;20028;-85
2022/08/02 14:31:34;;;;;;;5.97;2.90;;;;;;;;;;4934573;29;20027;-85
2022/08/02 14:33:59;;;;;;;5.03;2.13;;;;;;;;;;4935751;29;20457;-85
2022/08/02 14:36:25;;;;;;;8.52;2.47;;;;;;;;;;4919614;29;20289;-85